createdAt,value
2023-04-27T00:01:13.016Z,7.70
2023-04-27T00:03:40.139Z,7.70
2023-04-27T00:06:08.226Z,7.60
2023-04-27T00:08:35.121Z,7.60
2023-04-27T00:11:01.795Z,7.50
2023-04-27T00:13:28.700Z,7.50
2023-04-27T00:15:55.693Z,7.50
2023-04-27T00:18:22.319Z,7.50
2023-04-27T00:20:48.936Z,7.60
2023-04-27T00:23:15.630Z,7.50
2023-04-27T00:25:42.161Z,7.40
2023-04-27T00:28:08.812Z,7.40
2023-04-27T00:30:36.216Z,7.30
2023-04-27T00:33:03.001Z,7.20
2023-04-27T00:35:29.672Z,7.20
2023-04-27T00:37:56.353Z,7.20
2023-04-27T00:40:23.021Z,7.10
2023-04-27T00:42:49.626Z,7.10
2023-04-27T00:45:16.362Z,7.10
2023-04-27T00:47:43.928Z,7.20
2023-04-27T00:50:11.946Z,7.20
2023-04-27T00:52:39.170Z,7.20
2023-04-27T00:55:05.975Z,7.30
2023-04-27T00:57:33.470Z,7.30
2023-04-27T01:00:00.229Z,7.30
2023-04-27T01:02:27.039Z,7.20
2023-04-27T01:04:54.031Z,7.10
2023-04-27T01:07:24.496Z,7.10
2023-04-27T01:09:51.257Z,7.10
2023-04-27T01:12:17.876Z,7.20
2023-04-27T01:14:44.587Z,7.30
2023-04-27T01:17:11.804Z,7.30
2023-04-27T01:19:40.269Z,7.30
2023-04-27T01:22:07.237Z,7.40
2023-04-27T01:24:33.930Z,7.30
2023-04-27T01:27:01.743Z,7.30
2023-04-27T01:29:28.490Z,7.20
2023-04-27T01:31:55.121Z,7.10
2023-04-27T01:34:21.758Z,7.20
2023-04-27T01:36:48.537Z,7.20
2023-04-27T01:39:15.318Z,7.20
2023-04-27T01:41:42.113Z,7.20
2023-04-27T01:44:08.759Z,7.20
2023-04-27T01:46:35.536Z,7.20
2023-04-27T01:49:02.365Z,7.10
2023-04-27T01:51:29.043Z,7.20
2023-04-27T01:53:55.701Z,7.20
2023-04-27T01:56:22.264Z,7.20
2023-04-27T01:58:48.821Z,7.20
2023-04-27T02:01:15.760Z,7.10
2023-04-27T02:03:42.584Z,7.00
2023-04-27T02:06:09.438Z,7.00
2023-04-27T02:08:36.274Z,6.90
2023-04-27T02:11:03.116Z,6.90
2023-04-27T02:13:32.012Z,6.80
2023-04-27T02:15:58.658Z,6.70
2023-04-27T02:18:25.364Z,6.60
2023-04-27T02:20:52.035Z,6.50
2023-04-27T02:23:18.633Z,6.50
2023-04-27T02:25:46.896Z,6.30
2023-04-27T02:28:14.109Z,6.30
2023-04-27T02:30:41.337Z,6.30
2023-04-27T02:33:08.134Z,6.20
2023-04-27T02:35:34.869Z,6.20
2023-04-27T02:38:01.570Z,6.10
2023-04-27T02:40:28.418Z,6.10
2023-04-27T02:42:55.109Z,6.10
2023-04-27T02:45:21.754Z,6.10
2023-04-27T02:47:49.106Z,6.10
2023-04-27T02:50:15.803Z,6.10
2023-04-27T02:52:42.369Z,6.30
2023-04-27T02:55:09.282Z,6.30
2023-04-27T02:57:36.034Z,6.30
2023-04-27T03:00:05.374Z,6.30
2023-04-27T03:02:32.241Z,6.30
2023-04-27T03:04:59.340Z,6.40
2023-04-27T03:07:25.963Z,6.30
2023-04-27T03:09:52.625Z,6.30
2023-04-27T03:12:19.153Z,6.20
2023-04-27T03:14:45.803Z,6.20
2023-04-27T03:17:12.352Z,6.20
2023-04-27T03:19:38.959Z,6.10
2023-04-27T03:22:05.669Z,6.10
2023-04-27T03:24:33.196Z,6.10
2023-04-27T03:27:01.557Z,6.10
2023-04-27T03:29:28.307Z,6.10
2023-04-27T03:31:54.909Z,6.20
2023-04-27T03:34:21.921Z,6.20
2023-04-27T03:36:48.563Z,6.20
2023-04-27T03:39:15.418Z,6.20
2023-04-27T03:41:42.374Z,6.20
2023-04-27T03:44:09.015Z,6.30
2023-04-27T03:46:36.062Z,6.30
2023-04-27T03:49:02.962Z,6.30
2023-04-27T03:51:30.262Z,6.30
2023-04-27T03:53:56.916Z,6.30
2023-04-27T03:56:23.498Z,6.30
2023-04-27T03:58:50.167Z,6.30
2023-04-27T04:01:18.821Z,6.10
2023-04-27T04:03:46.154Z,6.20
2023-04-27T04:06:12.971Z,6.20
2023-04-27T04:08:39.685Z,6.10
2023-04-27T04:11:06.382Z,6.00
2023-04-27T04:13:33.054Z,6.00
2023-04-27T04:16:02.810Z,6.00
2023-04-27T04:18:29.637Z,6.00
2023-04-27T04:20:56.359Z,6.00
2023-04-27T04:23:23.660Z,6.00
2023-04-27T04:25:50.366Z,6.10
2023-04-27T04:28:17.283Z,6.00
2023-04-27T04:30:43.957Z,6.00
2023-04-27T04:33:10.579Z,6.00
2023-04-27T04:35:41.392Z,6.00
2023-04-27T04:38:08.673Z,5.90
2023-04-27T04:40:36.098Z,5.90
2023-04-27T04:43:02.957Z,5.90
2023-04-27T04:45:29.606Z,5.90
2023-04-27T04:47:56.293Z,5.80
2023-04-27T04:50:23.588Z,5.90
2023-04-27T04:52:50.927Z,5.90
2023-04-27T04:55:17.657Z,5.90
2023-04-27T04:57:44.366Z,6.00
2023-04-27T05:00:12.769Z,5.90
2023-04-27T05:02:42.811Z,6.00
2023-04-27T05:05:16.928Z,6.00
2023-04-27T05:07:43.660Z,6.00
2023-04-27T05:10:10.444Z,6.00
2023-04-27T05:12:37.086Z,6.00
2023-04-27T05:15:04.066Z,6.00
2023-04-27T05:17:31.171Z,6.00
2023-04-27T05:19:58.198Z,6.10
2023-04-27T05:22:24.895Z,6.10
2023-04-27T05:24:51.859Z,6.20
2023-04-27T05:27:18.733Z,6.20
2023-04-27T05:29:45.352Z,6.30
2023-04-27T05:32:12.039Z,6.40
2023-04-27T05:34:38.686Z,6.60
2023-04-27T05:37:05.397Z,6.60
2023-04-27T05:39:32.012Z,6.70
2023-04-27T05:41:58.863Z,6.70
2023-04-27T05:44:28.396Z,6.80
2023-04-27T05:46:56.076Z,6.90
2023-04-27T05:49:23.206Z,6.90
2023-04-27T05:51:49.858Z,7.00
2023-04-27T05:54:16.782Z,7.10
2023-04-27T05:56:43.527Z,7.20
2023-04-27T05:59:10.232Z,7.30
2023-04-27T06:01:36.973Z,7.40
2023-04-27T06:04:04.065Z,7.40
2023-04-27T06:06:31.688Z,7.40
2023-04-27T06:08:58.265Z,7.40
2023-04-27T06:11:24.863Z,7.30
2023-04-27T06:13:51.498Z,7.30
2023-04-27T06:16:21.111Z,7.40
2023-04-27T06:18:48.518Z,7.40
2023-04-27T06:21:15.116Z,7.50
2023-04-27T06:23:42.135Z,7.60
2023-04-27T06:26:08.807Z,7.60
2023-04-27T06:28:35.562Z,7.80
2023-04-27T06:31:02.312Z,7.60
2023-04-27T06:33:28.942Z,7.60
2023-04-27T06:35:55.766Z,7.70
2023-04-27T06:38:22.615Z,7.60
2023-04-27T06:40:53.412Z,7.70
2023-04-27T06:43:20.196Z,7.70
2023-04-27T06:45:47.029Z,7.70
2023-04-27T06:48:13.909Z,7.70
2023-04-27T06:50:40.794Z,7.80
2023-04-27T06:53:08.255Z,7.90
2023-04-27T06:55:35.326Z,8.00
2023-04-27T06:58:02.914Z,8.10
2023-04-27T07:00:29.887Z,8.20
2023-04-27T07:02:56.923Z,8.30
2023-04-27T07:05:24.910Z,8.30
2023-04-27T07:07:52.214Z,8.30
2023-04-27T07:10:19.317Z,8.50
2023-04-27T07:12:46.363Z,8.60
2023-04-27T07:15:15.207Z,8.60
2023-04-27T07:17:42.018Z,8.60
2023-04-27T07:20:09.125Z,8.60
2023-04-27T07:22:36.422Z,8.60
2023-04-27T07:25:03.962Z,8.60
2023-04-27T07:27:42.314Z,8.70
2023-04-27T07:30:10.293Z,8.80
2023-04-27T07:32:39.321Z,8.90
2023-04-27T07:35:06.433Z,9.00
2023-04-27T07:37:33.713Z,9.20
2023-04-27T07:40:02.356Z,9.10
2023-04-27T07:42:29.077Z,9.20
2023-04-27T07:44:57.316Z,9.30
2023-04-27T07:47:24.181Z,9.40
2023-04-27T07:49:51.040Z,9.40
2023-04-27T07:52:17.713Z,9.50
2023-04-27T07:54:44.834Z,9.50
2023-04-27T07:57:11.843Z,9.50
2023-04-27T07:59:39.012Z,9.70
2023-04-27T08:02:18.484Z,9.80
2023-04-27T08:04:48.056Z,10.00
2023-04-27T08:07:16.068Z,10.20
2023-04-27T08:09:43.217Z,10.20
2023-04-27T08:12:09.909Z,10.40
2023-04-27T08:14:36.862Z,10.50
2023-04-27T08:17:04.884Z,10.70
2023-04-27T08:19:31.968Z,10.80
2023-04-27T08:21:59.121Z,10.90
2023-04-27T08:24:26.140Z,11.10
2023-04-27T08:26:52.927Z,11.20
2023-04-27T08:29:27.768Z,11.20
2023-04-27T08:31:59.517Z,11.50
2023-04-27T08:34:26.753Z,11.60
2023-04-27T08:36:54.232Z,11.90
2023-04-27T08:39:24.227Z,11.90
2023-04-27T08:41:52.068Z,12.30
2023-04-27T08:44:18.832Z,12.40
2023-04-27T08:46:48.468Z,12.50
2023-04-27T08:49:17.036Z,12.70
2023-04-27T08:51:45.728Z,12.60
2023-04-27T08:54:12.560Z,12.70
2023-04-27T08:56:39.377Z,12.70
2023-04-27T08:59:16.711Z,12.30
2023-04-27T09:01:44.341Z,12.70
2023-04-27T09:04:19.463Z,12.80
2023-04-27T09:06:46.520Z,13.10
2023-04-27T09:09:21.775Z,12.80
2023-04-27T09:11:49.807Z,12.70
2023-04-27T09:14:20.907Z,13.30
2023-04-27T09:16:58.090Z,13.50
2023-04-27T09:19:28.741Z,13.40
2023-04-27T09:22:09.956Z,14.10
2023-04-27T09:24:36.906Z,14.90
2023-04-27T09:27:05.451Z,16.30
2023-04-27T09:29:33.061Z,17.10
2023-04-27T09:31:59.829Z,18.00
2023-04-27T09:34:26.626Z,18.00
2023-04-27T09:36:53.471Z,18.40
2023-04-27T09:39:20.357Z,19.70
2023-04-27T09:41:48.040Z,19.40
2023-04-27T09:44:14.886Z,19.90
2023-04-27T09:46:43.941Z,19.90
2023-04-27T09:49:11.703Z,21.10
2023-04-27T09:51:39.499Z,20.40
2023-04-27T09:54:07.226Z,20.50
2023-04-27T09:56:48.865Z,20.60
2023-04-27T09:59:32.960Z,21.10
2023-04-27T10:02:10.078Z,21.70
2023-04-27T10:04:47.319Z,20.20
2023-04-27T10:07:17.731Z,21.00
2023-04-27T10:09:49.145Z,20.80
2023-04-27T10:12:35.875Z,19.80
2023-04-27T10:15:15.950Z,17.90
2023-04-27T10:18:00.624Z,17.70
2023-04-27T10:20:39.931Z,19.00
2023-04-27T10:23:07.723Z,20.00
2023-04-27T10:25:38.328Z,20.20
2023-04-27T10:28:05.053Z,20.20
2023-04-27T10:30:32.518Z,19.20
2023-04-27T10:33:03.822Z,19.20
2023-04-27T10:35:33.558Z,20.40
2023-04-27T10:38:08.382Z,20.30
2023-04-27T10:40:35.797Z,20.50
2023-04-27T10:43:08.848Z,19.90
2023-04-27T10:45:35.392Z,21.60
2023-04-27T10:48:02.074Z,22.20
2023-04-27T10:50:29.561Z,22.10
2023-04-27T10:53:01.060Z,19.60
2023-04-27T10:55:27.704Z,18.20
2023-04-27T10:57:55.585Z,19.70
2023-04-27T11:00:29.352Z,21.60
2023-04-27T11:02:56.994Z,20.40
2023-04-27T11:05:25.110Z,20.20
2023-04-27T11:07:51.830Z,21.70
2023-04-27T11:10:18.893Z,22.60
2023-04-27T11:12:45.742Z,22.00
2023-04-27T11:15:12.767Z,21.70
2023-04-27T11:17:39.709Z,21.40
2023-04-27T11:20:09.220Z,22.00
2023-04-27T11:22:46.128Z,22.50
2023-04-27T11:25:12.725Z,20.10
2023-04-27T11:27:40.022Z,19.30
2023-04-27T11:30:07.847Z,19.50
2023-04-27T11:32:34.560Z,19.30
2023-04-27T11:35:01.595Z,19.50
2023-04-27T11:37:28.274Z,20.70
2023-04-27T11:39:55.285Z,20.00
2023-04-27T11:42:23.130Z,18.80
2023-04-27T11:44:56.717Z,18.50
2023-04-27T11:47:24.988Z,19.40
2023-04-27T11:49:54.975Z,19.70
2023-04-27T11:52:41.728Z,20.30
2023-04-27T11:55:10.626Z,20.10
2023-04-27T11:57:38.428Z,19.40
2023-04-27T12:00:12.010Z,19.70
2023-04-27T12:02:39.013Z,21.10
2023-04-27T12:05:06.299Z,20.00
2023-04-27T12:07:33.410Z,20.80
2023-04-27T12:10:01.215Z,21.30
2023-04-27T12:12:28.166Z,21.80
2023-04-27T12:14:54.681Z,21.40
2023-04-27T12:17:21.501Z,20.40
2023-04-27T12:19:48.078Z,20.40
2023-04-27T12:22:14.671Z,21.20
2023-04-27T12:24:41.267Z,22.00
2023-04-27T12:27:08.319Z,21.40
2023-04-27T12:29:34.923Z,21.50
2023-04-27T12:32:01.851Z,21.70
2023-04-27T12:34:28.475Z,21.80
2023-04-27T12:36:55.105Z,21.80
2023-04-27T12:39:25.135Z,21.90
2023-04-27T12:41:52.628Z,21.60
2023-04-27T12:44:19.610Z,21.30
2023-04-27T12:46:48.153Z,20.80
2023-04-27T12:49:14.900Z,19.70
2023-04-27T12:51:41.724Z,18.90
2023-04-27T12:54:08.902Z,19.70
2023-04-27T12:56:35.760Z,19.80
2023-04-27T12:59:02.298Z,19.90
2023-04-27T13:01:28.964Z,20.40
2023-04-27T13:03:56.248Z,20.10
2023-04-27T13:06:22.917Z,19.20
2023-04-27T13:08:50.772Z,19.60
2023-04-27T13:11:18.001Z,20.30
2023-04-27T13:13:45.281Z,20.40
2023-04-27T13:16:12.277Z,20.60
2023-04-27T13:18:40.079Z,22.00
2023-04-27T13:21:07.580Z,20.60
2023-04-27T13:23:34.145Z,21.30
2023-04-27T13:26:01.188Z,21.90
2023-04-27T13:28:27.749Z,22.90
2023-04-27T13:30:54.416Z,22.50
2023-04-27T13:33:23.673Z,22.10
2023-04-27T13:35:51.197Z,23.20
2023-04-27T13:38:17.737Z,21.60
2023-04-27T13:40:44.378Z,22.10
2023-04-27T13:43:10.910Z,22.30
2023-04-27T13:45:37.517Z,22.90
2023-04-27T13:48:04.197Z,23.60
2023-04-27T13:50:30.809Z,23.20
2023-04-27T13:52:57.320Z,22.90
2023-04-27T13:55:23.840Z,23.90
2023-04-27T13:57:50.321Z,23.00
2023-04-27T14:00:17.005Z,23.40
2023-04-27T14:02:43.555Z,24.80
2023-04-27T14:05:10.446Z,25.20
2023-04-27T14:07:36.997Z,25.00
2023-04-27T14:10:04.200Z,25.70
2023-04-27T14:12:31.719Z,26.10
2023-04-27T14:15:01.874Z,25.90
2023-04-27T14:17:31.845Z,26.30
2023-04-27T14:19:58.735Z,26.20
2023-04-27T14:22:25.480Z,26.60
2023-04-27T14:24:56.538Z,27.50
2023-04-27T14:27:23.638Z,24.00
2023-04-27T14:30:08.253Z,25.40
2023-04-27T14:32:36.189Z,26.20
2023-04-27T14:35:07.052Z,27.20
2023-04-27T14:37:33.958Z,26.20
2023-04-27T14:40:00.837Z,27.40
2023-04-27T14:42:27.829Z,26.90
2023-04-27T14:44:54.568Z,26.70
2023-04-27T14:47:25.330Z,26.10
2023-04-27T14:49:52.164Z,25.30
2023-04-27T14:52:24.719Z,24.50
2023-04-27T14:54:51.579Z,24.20
2023-04-27T14:57:18.309Z,24.80
2023-04-27T14:59:45.215Z,25.10
2023-04-27T15:02:11.989Z,27.00
2023-04-27T15:04:47.981Z,25.50
2023-04-27T15:07:14.869Z,25.70
2023-04-27T15:09:42.106Z,25.20
2023-04-27T15:12:12.104Z,25.40
2023-04-27T15:14:41.502Z,23.30
2023-04-27T15:17:08.265Z,24.40
2023-04-27T15:19:35.682Z,25.50
2023-04-27T15:22:05.877Z,25.10
2023-04-27T15:24:32.727Z,23.80
2023-04-27T15:26:59.639Z,21.90
2023-04-27T15:29:26.398Z,22.50
2023-04-27T15:31:54.162Z,22.50
2023-04-27T15:34:21.027Z,24.30
2023-04-27T15:36:47.651Z,25.10
2023-04-27T15:39:14.542Z,24.90
2023-04-27T15:41:41.463Z,25.20
2023-04-27T15:44:08.093Z,25.40
2023-04-27T15:49:18.105Z,25.90
2023-04-27T15:51:44.717Z,25.80
2023-04-27T15:54:11.588Z,25.60
2023-04-27T15:56:38.175Z,25.30
2023-04-27T15:59:04.788Z,24.40
2023-04-27T16:04:07.151Z,23.70
2023-04-27T16:06:34.757Z,23.70
2023-04-27T16:09:03.222Z,23.20
2023-04-27T16:11:30.770Z,22.40
2023-04-27T16:14:00.298Z,21.90
2023-04-27T16:16:27.201Z,21.50
2023-04-27T16:18:53.983Z,21.10
2023-04-27T16:21:21.242Z,21.40
2023-04-27T16:23:47.937Z,21.30
2023-04-27T16:26:14.691Z,21.60
2023-04-27T16:28:41.579Z,21.20
2023-04-27T16:31:08.198Z,21.10
2023-04-27T16:33:35.049Z,20.90
2023-04-27T16:36:01.753Z,20.60
2023-04-27T16:38:28.506Z,20.30
2023-04-27T16:40:56.192Z,20.30
2023-04-27T16:43:25.367Z,20.00
2023-04-27T16:45:52.044Z,19.50
2023-04-27T16:48:18.731Z,19.20
2023-04-27T16:50:46.494Z,19.30
2023-04-27T16:53:14.820Z,19.20
2023-04-27T16:55:41.622Z,18.90
2023-04-27T16:58:08.293Z,19.10
2023-04-27T17:00:34.861Z,19.20
2023-04-27T17:03:03.807Z,19.40
2023-04-27T17:05:30.716Z,18.90
2023-04-27T17:07:57.372Z,18.80
2023-04-27T17:10:24.128Z,18.60
2023-04-27T17:12:51.243Z,18.60
2023-04-27T17:15:18.424Z,18.60
2023-04-27T17:17:45.153Z,18.60
2023-04-27T17:20:11.951Z,18.60
2023-04-27T17:22:38.627Z,18.40
2023-04-27T17:25:05.657Z,18.50
2023-04-27T17:27:32.373Z,18.20
2023-04-27T17:29:59.089Z,18.10
2023-04-27T17:32:26.951Z,17.90
2023-04-27T17:34:53.548Z,17.80
2023-04-27T17:37:20.395Z,17.50
2023-04-27T17:39:47.437Z,17.50
2023-04-27T17:42:14.130Z,17.20
2023-04-27T17:44:42.082Z,17.00
2023-04-27T17:47:09.187Z,16.90
2023-04-27T17:49:35.996Z,16.90
2023-04-27T17:52:02.692Z,16.80
2023-04-27T17:54:30.231Z,16.80
2023-04-27T17:56:57.190Z,16.80
2023-04-27T17:59:24.680Z,16.80
2023-04-27T18:01:51.519Z,16.80
2023-04-27T18:04:18.221Z,16.80
2023-04-27T18:06:45.001Z,16.60
2023-04-27T18:09:12.018Z,16.50
2023-04-27T18:11:38.833Z,16.40
2023-04-27T18:14:05.459Z,16.30
2023-04-27T18:16:32.681Z,16.30
2023-04-27T18:18:59.386Z,16.20
2023-04-27T18:21:28.324Z,16.10
2023-04-27T18:23:54.970Z,16.10
2023-04-27T18:26:22.262Z,16.00
2023-04-27T18:28:48.891Z,16.00
2023-04-27T18:31:16.222Z,15.90
2023-04-27T18:33:46.249Z,15.80
2023-04-27T18:36:13.097Z,15.70
2023-04-27T18:38:39.683Z,15.60
2023-04-27T18:41:06.790Z,15.40
2023-04-27T18:43:39.069Z,15.30
2023-04-27T18:46:06.084Z,15.20
2023-04-27T18:48:32.782Z,15.20
2023-04-27T18:50:59.466Z,15.10
2023-04-27T18:53:26.721Z,15.20
2023-04-27T18:55:53.468Z,15.20
2023-04-27T19:00:50.815Z,15.20
2023-04-27T19:03:26.458Z,15.10
2023-04-27T19:05:53.337Z,15.10
2023-04-27T19:08:19.973Z,14.90
2023-04-27T19:10:46.549Z,14.90
2023-04-27T19:13:13.216Z,14.80
2023-04-27T19:15:39.989Z,14.90
2023-04-27T19:18:11.375Z,14.80
2023-04-27T19:20:38.980Z,14.80
2023-04-27T19:23:05.800Z,14.70
2023-04-27T19:25:32.414Z,14.60
2023-04-27T19:27:59.169Z,14.60
2023-04-27T19:30:25.846Z,14.60
2023-04-27T19:32:52.630Z,14.60
2023-04-27T19:35:20.277Z,14.50
2023-04-27T19:37:46.892Z,14.50
2023-04-27T19:40:13.652Z,14.50
2023-04-27T19:42:40.448Z,14.50
2023-04-27T19:45:07.387Z,14.60
2023-04-27T19:47:34.013Z,14.50
2023-04-27T19:50:00.735Z,14.50
2023-04-27T19:52:27.372Z,14.50
2023-04-27T19:54:54.482Z,14.50
2023-04-27T19:57:21.707Z,14.50
2023-04-27T19:59:48.811Z,14.50
2023-04-27T20:02:15.686Z,14.50
2023-04-27T20:04:43.081Z,14.50
2023-04-27T20:07:09.861Z,14.50
2023-04-27T20:09:36.589Z,14.50
2023-04-27T20:12:04.917Z,14.50
2023-04-27T20:14:35.136Z,14.50
2023-04-27T20:17:02.878Z,14.50
2023-04-27T20:19:30.088Z,14.40
2023-04-27T20:21:56.701Z,14.40
2023-04-27T20:24:23.427Z,14.40
2023-04-27T20:26:50.106Z,14.40
2023-04-27T20:29:16.701Z,14.40
2023-04-27T20:31:43.348Z,14.40
2023-04-27T20:34:09.996Z,14.40
2023-04-27T20:36:36.612Z,14.40
2023-04-27T20:39:06.333Z,14.30
2023-04-27T20:41:35.907Z,14.30
2023-04-27T20:44:02.739Z,14.10
2023-04-27T20:46:29.792Z,14.10
2023-04-27T20:48:56.448Z,14.00
2023-04-27T20:51:23.630Z,13.90
2023-04-27T20:53:50.268Z,13.90
2023-04-27T20:56:16.893Z,13.90
2023-04-27T20:58:43.605Z,14.00
2023-04-27T21:01:10.294Z,13.90
2023-04-27T21:03:37.117Z,14.00
2023-04-27T21:06:04.026Z,13.90
2023-04-27T21:08:30.813Z,13.90
2023-04-27T21:10:57.505Z,13.90
2023-04-27T21:13:24.457Z,13.90
2023-04-27T21:15:51.161Z,13.90
2023-04-27T21:18:29.891Z,13.80
2023-04-27T21:20:57.223Z,13.70
2023-04-27T21:23:23.751Z,13.70
2023-04-27T21:25:50.432Z,13.70
2023-04-27T21:28:17.058Z,13.60
2023-04-27T21:30:43.639Z,13.50
2023-04-27T21:33:10.515Z,13.50
2023-04-27T21:35:37.189Z,13.50
2023-04-27T21:38:03.874Z,13.50
2023-04-27T21:40:30.560Z,13.50
2023-04-27T21:42:57.195Z,13.50
2023-04-27T21:45:23.747Z,13.50
2023-04-27T21:47:50.503Z,13.50
2023-04-27T21:50:17.201Z,13.50
2023-04-27T21:52:43.967Z,13.40
2023-04-27T21:55:10.951Z,13.40
2023-04-27T21:57:37.623Z,13.30
2023-04-27T22:00:13.119Z,13.30
2023-04-27T22:02:42.455Z,13.20
2023-04-27T22:05:09.670Z,13.10
2023-04-27T22:07:37.252Z,13.10
2023-04-27T22:10:04.957Z,13.10
2023-04-27T22:12:31.823Z,13.10
2023-04-27T22:14:58.424Z,13.10
2023-04-27T22:17:25.060Z,13.10
2023-04-27T22:19:51.795Z,13.20
2023-04-27T22:22:18.372Z,13.10
2023-04-27T22:24:45.017Z,13.10
2023-04-27T22:27:11.705Z,13.10
2023-04-27T22:29:38.346Z,13.00
2023-04-27T22:32:05.246Z,13.00
2023-04-27T22:34:32.148Z,13.00
2023-04-27T22:36:59.308Z,13.00
2023-04-27T22:39:25.946Z,13.00
2023-04-27T22:41:52.528Z,13.00
2023-04-27T22:44:19.068Z,13.00
2023-04-27T22:46:46.165Z,13.00
2023-04-27T22:49:12.805Z,13.00
2023-04-27T22:51:39.374Z,13.00
2023-04-27T22:54:05.913Z,13.00
2023-04-27T22:56:33.023Z,13.00
2023-04-27T22:58:59.652Z,13.10
2023-04-27T23:01:26.335Z,13.10
2023-04-27T23:03:53.302Z,13.10
2023-04-27T23:06:19.979Z,13.20
2023-04-27T23:08:47.086Z,13.30
2023-04-27T23:11:15.436Z,13.30
2023-04-27T23:13:42.245Z,13.30
2023-04-27T23:16:09.941Z,13.30
2023-04-27T23:18:36.845Z,13.30
2023-04-27T23:21:03.557Z,13.30
2023-04-27T23:23:32.301Z,13.30
2023-04-27T23:25:58.848Z,13.40
2023-04-27T23:28:25.407Z,13.30
2023-04-27T23:30:55.244Z,13.30
2023-04-27T23:33:22.204Z,13.30
2023-04-27T23:35:48.834Z,13.30
2023-04-27T23:38:15.410Z,13.30
2023-04-27T23:40:42.086Z,13.20
2023-04-27T23:43:08.748Z,13.10
2023-04-27T23:45:35.615Z,12.90
2023-04-27T23:48:02.325Z,12.80
2023-04-27T23:50:29.075Z,12.70
2023-04-27T23:52:55.831Z,12.70
2023-04-27T23:55:22.501Z,12.80
2023-04-27T23:57:51.193Z,12.90
